Terminal Aerodrome Forecast
Issued by NWS

Home | Current Version | Previous Version | Text Only | Print | Product List | Glossary On
Versions: 1 2 3 4 5 6 7 8 9 10 11 12 13 14 15 16 17 18 19 20 21 22 23 24 25 26 27 28 29 30 31 32 33
000
FTUS45 KPSR 031134
TAFIWA
TAF
KIWA 031134Z 0312/0412 12007KT P6SM SKC
     FM032000 25010G16KT P6SM SKC
     FM040100 29006KT P6SM SKC
     FM040600 12007KT P6SM FEW200
      AMD LTD TO CLD VIS AND WIND TIL 031300=

USA.gov is the U.S. government's official web portal to all federal, state and local government web resources and services.